Station: OODNADATTA AWS

  Atmospheric Gas Attenuation - ITU Rec 676-11   --------------- db/100km ---------------
Date Time Temp RH % AH g/m3 Dew Point Wind Direction Speed kph Gust kph Barometer mB Rainfall Since 9am 24GHz 47GHz 76GHz 122GHz 134GHz 241GHz
13 08:00 4.6 69 4.57 -0.6 0 0 1027.1 0 11.3 22.5 28.3 73.5 55.8 187.8
13 07:50 3.8 73 4.58 -0.6 0 0 1026.9 0 11.4 22.7 28.7 74.4 56.5 190.1
13 07:40 3.2 74 4.46 -1 0 0 1026.9 0 11.1 22.6 28.4 73.7 55.4 186.0
13 07:30 2.6 73 4.23 -1.7 0 0 1027 0 10.7 22.4 27.7 71.8 52.8 176.9
13 07:20 2.8 74 4.35 -1.4 0 0 1026.8 0 10.9 22.5 28.1 72.9 54.2 181.9
13 07:10 2.7 75 4.37 -1.3 0 0 1026.7 0 11.0 22.6 28.2 73.2 54.6 183.0
13 07:00 2.5 73 4.2 -1.8 0 0 1026.9 0 10.6 22.4 27.6 71.6 52.5 175.7
13 06:50 2.4 72 4.12 -2.1 0 0 1026.7 0 10.4 22.3 27.3 70.8 51.5 172.3
13 06:40 2 63 3.5 -4.3 0 0 1026.7 0 9.1 21.4 25.1 64.7 43.8 145.2
13 06:30 3.1 71 4.25 -1.6 0 0 1026.7 0 10.7 22.3 27.6 71.5 52.7 176.6
13 06:20 3.4 70 4.28 -1.5 0 0 1026.6 0 10.7 22.3 27.6 71.6 52.9 177.3
13 06:10 3.9 74 4.68 -0.3 0 0 1026.5 0 11.6 22.8 29.0 75.3 57.7 194.3
13 06:00 3.9 73 4.61 -0.5 0 2 1026.6 0 11.4 22.7 28.7 74.6 56.8 191.1
13 05:50 3.8 69 4.33 -1.4 2 4 1026.5 0 10.8 22.3 27.7 71.7 53.3 178.7
13 05:40 4.1 71 4.55 -0.7 0 0 1026.5 0 11.3 22.5 28.4 73.7 55.9 187.9
13 05:30 4.6 73 4.83 0.2 0 0 1026.5 0 11.9 22.8 29.3 76.2 59.2 199.4
13 05:20 4 72 4.58 -0.6 0 0 1026.4 0 11.4 22.6 28.6 74.1 56.4 189.5
13 05:10 3.7 70 4.37 -1.3 0 0 1026.3 0 10.9 22.3 27.8 72.2 53.8 180.7
13 04:50 3.5 70 4.31 -1.4 0 0 1026 0 10.8 22.3 27.7 71.7 53.2 178.4
13 04:40 3.5 65 4 -2.4 4 6 1025.8 0 10.1 21.8 26.5 68.5 49.2 164.4
13 04:30 4.1 64 4.1 -2.1 9 11 1025.9 0 10.3 21.8 26.7 69.0 50.1 167.6
13 04:20 4.4 66 4.31 -1.4 11 11 1025.7 0 10.8 22.0 27.4 70.9 52.6 176.3
13 04:10 4.7 64 4.27 -1.5 7 7 1025.4 0 10.7 21.9 27.1 70.2 51.9 173.8
13 04:00 5.4 69 4.82 0.2 7 9 1025.5 0 11.8 22.6 29.0 75.2 58.4 196.8
13 03:50 5.5 68 4.78 0.1 7 7 1025.4 0 11.8 22.5 28.8 74.7 57.8 194.8
13 03:40 5.7 67 4.77 0.1 7 9 1025.6 0 11.7 22.4 28.7 74.4 57.5 193.9
13 03:30 5.9 67 4.83 0.3 7 9 1025.8 0 11.8 22.5 28.8 74.9 58.1 196.1
13 03:20 6 67 4.87 0.3 7 7 1025.7 0 11.9 22.5 29.0 75.2 58.6 197.6
13 03:10 6.1 67 4.9 0.4 6 6 1025.7 0 12.0 22.5 29.0 75.4 58.9 198.7
13 03:00 6.3 67 4.96 0.6 6 7 1025.7 0 12.1 22.6 29.2 75.8 59.5 200.9
13 02:50 6.6 66 4.99 0.7 7 7 1025.5 0 12.2 22.6 29.2 75.8 59.6 201.5
13 02:40 6.9 67 5.16 1.2 7 7 1025.4 0 12.5 22.7 29.7 77.3 61.6 208.3
13 02:30 7 68 5.27 1.5 0 0 1025.6 0 12.7 22.9 30.1 78.4 62.9 213.0
13 02:20 6.5 68 5.1 1 0 0 1025.5 0 12.4 22.7 29.7 77.1 61.1 206.6
13 02:10 6.2 68 5 0.7 0 0 1025.6 0 12.2 22.7 29.4 76.3 60.1 202.9
13 02:00 6 68 4.94 0.6 0 0 1025.7 0 12.1 22.6 29.2 75.9 59.5 200.8
13 01:50 6.2 67 4.93 0.5 0 0 1025.6 0 12.0 22.6 29.1 75.6 59.2 199.8
13 01:40 5.9 64 4.62 -0.4 2 4 1025.7 0 11.4 22.2 28.0 72.7 55.5 186.7
13 01:30 6.6 64 4.83 0.3 0 0 1025.7 0 11.8 22.3 28.6 74.2 57.6 194.4
13 01:20 7 66 5.12 1.1 0 0 1025.5 0 12.4 22.7 29.5 76.8 61.0 206.2
13 01:10 6.4 63 4.7 -0.1 0 0 1025.4 0 11.6 22.1 28.2 73.1 56.1 189.0
13 01:00 6.9 64 4.93 0.6 0 0 1025.4 0 12.0 22.4 28.9 74.9 58.7 198.0
13 00:50 7.4 65 5.17 1.3 0 0 1025.3 0 12.5 22.6 29.6 76.9 61.3 207.4
13 00:40 7.5 65 5.21 1.4 4 6 1025.4 0 12.6 22.7 29.7 77.2 61.7 208.9
13 00:30 7.3 64 5.06 1 0 0 1025.6 0 12.3 22.5 29.2 75.9 60.0 202.8
13 00:20 7.3 62 4.9 0.5 0 0 1025.4 0 11.9 22.2 28.6 74.3 58.0 195.7
13 00:10 7.6 62 5 0.8 7 7 1025.4 0 12.2 22.3 28.9 75.0 59.0 199.4
13 00:00 7.8 60 4.9 0.5 7 9 1025.5 0 11.9 22.1 28.4 73.8 57.6 194.5
12 23:50 8.4 61 5.18 1.3 0 0 1025.3 0 12.5 22.4 29.3 76.0 60.7 205.3
12 23:40 8.5 62 5.3 1.6 0 0 1025.2 0 12.8 22.5 29.7 77.2 62.1 210.3
12 23:30 8.2 61 5.11 1.1 6 7 1025.2 0 12.4 22.3 29.1 75.5 59.9 202.7
12 23:20 8.7 60 5.19 1.4 6 7 1025.1 0 12.5 22.3 29.2 75.8 60.5 204.9
12 23:10 8.9 58 5.08 1.1 7 9 1025 0 12.3 22.1 28.7 74.5 59.0 199.6
12 23:00 9.3 60 5.39 1.9 7 11 1025.3 0 12.9 22.5 29.7 77.3 62.6 212.1
12 22:50 9.3 58 5.21 1.5 7 9 1025.3 0 12.5 22.2 29.1 75.5 60.3 204.3
12 22:40 9.4 59 5.34 1.8 7 7 1025.3 0 12.8 22.4 29.5 76.7 61.9 209.7
12 22:30 9.5 59 5.37 1.9 11 11 1025.4 0 12.9 22.4 29.6 76.9 62.2 210.8
12 22:20 9.6 59 5.41 2 11 11 1025.2 0 13.0 22.4 29.7 77.2 62.6 212.2
12 22:10 9.4 59 5.34 1.8 13 13 1025.2 0 12.8 22.4 29.5 76.7 61.9 209.7
12 22:00 9.2 58 5.18 1.4 13 15 1025.2 0 12.5 22.2 29.0 75.3 60.0 203.2
12 21:50 9.2 57 5.09 1.1 11 13 1025.1 0 12.3 22.1 28.6 74.4 58.9 199.3
12 21:40 10 56 5.26 1.6 13 15 1025.1 0 12.6 22.1 29.0 75.3 60.4 204.6
12 21:30 10.5 55 5.34 1.9 13 15 1025.1 0 12.8 22.1 29.1 75.6 61.0 206.8
12 21:20 10.9 55 5.47 2.2 13 13 1024.9 0 13.0 22.2 29.4 76.5 62.3 211.3
12 21:10 10.9 56 5.57 2.5 13 13 1024.9 0 13.2 22.4 29.8 77.5 63.5 215.7
12 21:00 10.9 55 5.47 2.2 11 13 1025 0 13.0 22.2 29.4 76.5 62.3 211.4
12 20:50 11.5 55 5.68 2.8 11 13 1024.9 0 13.5 22.4 30.0 78.0 64.4 218.8
12 20:40 11.5 56 5.79 3 11 11 1024.8 0 13.7 22.5 30.4 79.1 65.7 223.5
12 20:30 11.3 56 5.71 2.9 7 9 1024.9 0 13.5 22.5 30.2 78.5 64.9 220.6
12 20:20 11.6 55 5.72 2.9 9 9 1024.7 0 13.5 22.4 30.1 78.3 64.8 220.2
12 20:10 11.8 54 5.68 2.8 11 13 1024.6 0 13.5 22.3 29.9 77.7 64.1 217.9
12 20:00 12.2 54 5.83 3.2 13 13 1024.7 0 13.8 22.4 30.3 78.8 65.6 223.3
12 19:50 12.1 53 5.68 2.8 13 13 1024.6 0 13.4 22.2 29.8 77.4 63.9 217.1
12 19:40 12.6 52 5.75 3 13 13 1024.6 0 13.6 22.2 29.8 77.6 64.3 218.7
12 19:30 12.9 51 5.75 3 11 13 1024.6 0 13.6 22.1 29.7 77.4 64.1 217.9
12 19:20 13 51 5.78 3.1 11 11 1024.4 0 13.6 22.1 29.8 77.5 64.4 218.9
12 19:10 13.2 50 5.74 3 9 9 1024.3 0 13.5 22.0 29.6 76.9 63.7 216.6
12 19:00 13.5 50 5.85 3.3 13 15 1024.2 0 13.8 22.1 29.9 77.7 64.8 220.5
12 18:50 13.9 49 5.87 3.4 15 15 1024 0 13.8 22.0 29.8 77.5 64.7 220.2
12 18:40 14.2 48 5.86 3.4 13 15 1024 0 13.7 22.0 29.6 77.1 64.3 218.9
12 18:30 14.7 47 5.92 3.5 13 17 1023.9 0 13.9 21.9 29.7 77.2 64.6 220.1
12 18:20 14.9 46 5.86 3.4 15 15 1023.7 0 13.7 21.8 29.4 76.4 63.7 217.0
12 18:10 15.5 45 5.95 3.6 17 19 1023.7 0 13.9 21.8 29.5 76.7 64.3 219.1
12 18:00 15.9 44 5.96 3.7 19 28 1023.6 0 13.9 21.7 29.4 76.4 64.1 218.4
12 17:50 16.1 45 6.17 4.2 22 26 1023.4 0 14.3 21.9 30.0 78.2 66.4 226.5
12 17:40 16.2 43 5.93 3.6 19 20 1023.4 0 13.8 21.6 29.1 75.9 63.5 216.4
12 17:30 16.3 43 5.97 3.7 20 24 1023.3 0 13.9 21.6 29.2 76.1 63.9 217.7
12 17:20 16.4 43 6 3.8 20 22 1023.1 0 14.0 21.6 29.3 76.3 64.2 218.6
12 17:10 16.6 44 6.22 4.3 24 26 1023 0 14.4 21.9 30.0 78.2 66.6 227.1
12 17:00 16.6 44 6.22 4.3 22 30 1023 0 14.4 21.9 30.0 78.2 66.6 227.1
12 16:50 16.7 44 6.25 4.4 28 30 1022.8 0 14.5 21.9 30.1 78.4 66.8 228.0
12 16:40 16.4 45 6.28 4.4 20 22 1022.9 0 14.6 22.0 30.3 78.9 67.4 230.1
12 16:30 16.9 43 6.18 4.3 24 30 1022.7 0 14.3 21.7 29.7 77.5 65.8 224.6
12 16:20 17.1 44 6.4 4.8 24 26 1022.5 0 14.8 22.0 30.4 79.4 68.2 233.0
12 16:10 16.7 44 6.25 4.4 22 24 1022.5 0 14.5 21.9 30.1 78.3 66.8 227.9
12 16:00 16.4 45 6.28 4.4 20 30 1022.6 0 14.6 22.0 30.3 78.9 67.4 230.0
12 15:50 17 45 6.51 5 24 26 1022.6 0 15.0 22.2 30.9 80.5 69.6 237.8
12 15:40 17.7 43 6.49 5 26 30 1022.5 0 14.9 22.0 30.5 79.6 68.8 234.9
12 15:30 17.5 43 6.41 4.8 22 33 1022.5 0 14.8 21.9 30.3 79.1 68.0 232.2
12 15:20 16.6 44 6.22 4.3 24 28 1022.6 0 14.4 21.9 30.0 78.2 66.5 227.0

Last Refresh: 13-Jul-2020 08:16:51

Most of the information presented on this site is sourced from the Bureau of Meteorology.  Copyright in all material sourced from the Bureau of Meteorology resides with the Commonwealth of Australia.